sensor_id;sensor_type;location;lat;lon;timestamp;temperature;humidity
17128;DHT22;8679;50.842;4.322;2023-02-26T00:00:45;1.80;99.90
17128;DHT22;8679;50.842;4.322;2023-02-26T00:03:11;1.80;99.90
17128;DHT22;8679;50.842;4.322;2023-02-26T00:05:37;1.80;99.90
17128;DHT22;8679;50.842;4.322;2023-02-26T00:08:02;1.80;99.90
17128;DHT22;8679;50.842;4.322;2023-02-26T00:10:30;1.80;99.90
17128;DHT22;8679;50.842;4.322;2023-02-26T00:12:56;1.80;99.90
17128;DHT22;8679;50.842;4.322;2023-02-26T00:15:22;1.70;99.90
17128;DHT22;8679;50.842;4.322;2023-02-26T00:20:17;1.70;99.90
17128;DHT22;8679;50.842;4.322;2023-02-26T00:22:43;1.70;99.90
17128;DHT22;8679;50.842;4.322;2023-02-26T00:25:09;1.80;99.90
17128;DHT22;8679;50.842;4.322;2023-02-26T00:27:35;1.80;99.90
17128;DHT22;8679;50.842;4.322;2023-02-26T00:30:06;1.80;99.90
17128;DHT22;8679;50.842;4.322;2023-02-26T00:32:33;1.70;99.90
17128;DHT22;8679;50.842;4.322;2023-02-26T00:34:59;1.60;99.90
17128;DHT22;8679;50.842;4.322;2023-02-26T00:40:14;1.60;99.90
17128;DHT22;8679;50.842;4.322;2023-02-26T00:42:42;1.50;99.90
17128;DHT22;8679;50.842;4.322;2023-02-26T00:45:09;1.50;99.90
17128;DHT22;8679;50.842;4.322;2023-02-26T00:47:41;1.50;99.90
17128;DHT22;8679;50.842;4.322;2023-02-26T00:50:23;1.60;99.90
17128;DHT22;8679;50.842;4.322;2023-02-26T00:55:30;1.60;99.90
17128;DHT22;8679;50.842;4.322;2023-02-26T00:57:56;1.50;99.90
17128;DHT22;8679;50.842;4.322;2023-02-26T01:00:22;1.60;99.90
17128;DHT22;8679;50.842;4.322;2023-02-26T01:02:48;1.50;99.90
17128;DHT22;8679;50.842;4.322;2023-02-26T01:05:15;1.50;99.90
17128;DHT22;8679;50.842;4.322;2023-02-26T01:10:12;1.50;99.90
17128;DHT22;8679;50.842;4.322;2023-02-26T01:12:39;1.50;99.90
17128;DHT22;8679;50.842;4.322;2023-02-26T01:15:06;1.50;99.90
17128;DHT22;8679;50.842;4.322;2023-02-26T01:17:35;1.50;99.90
17128;DHT22;8679;50.842;4.322;2023-02-26T01:20:10;1.50;99.90
17128;DHT22;8679;50.842;4.322;2023-02-26T01:25:17;1.40;99.90
17128;DHT22;8679;50.842;4.322;2023-02-26T01:27:45;1.50;99.90
17128;DHT22;8679;50.842;4.322;2023-02-26T01:30:12;1.50;99.90
17128;DHT22;8679;50.842;4.322;2023-02-26T01:32:50;1.40;99.90
17128;DHT22;8679;50.842;4.322;2023-02-26T01:48:51;1.40;99.90
17128;DHT22;8679;50.842;4.322;2023-02-26T01:51:36;1.30;99.90
17128;DHT22;8679;50.842;4.322;2023-02-26T01:54:04;1.30;99.90
17128;DHT22;8679;50.842;4.322;2023-02-26T01:56:29;1.30;99.90
17128;DHT22;8679;50.842;4.322;2023-02-26T01:58:55;1.30;99.90
17128;DHT22;8679;50.842;4.322;2023-02-26T02:01:22;1.30;99.90
17128;DHT22;8679;50.842;4.322;2023-02-26T02:03:47;1.20;99.90
17128;DHT22;8679;50.842;4.322;2023-02-26T02:06:20;1.20;99.90
17128;DHT22;8679;50.842;4.322;2023-02-26T02:08:47;1.20;99.90
17128;DHT22;8679;50.842;4.322;2023-02-26T02:11:13;1.20;99.90
17128;DHT22;8679;50.842;4.322;2023-02-26T02:14:07;1.30;99.90
17128;DHT22;8679;50.842;4.322;2023-02-26T02:16:58;1.20;99.90
17128;DHT22;8679;50.842;4.322;2023-02-26T02:19:50;1.20;99.90
17128;DHT22;8679;50.842;4.322;2023-02-26T02:25:37;1.10;99.90
17128;DHT22;8679;50.842;4.322;2023-02-26T02:31:19;1.10;99.90
17128;DHT22;8679;50.842;4.322;2023-02-26T02:36:53;1.00;99.90
17128;DHT22;8679;50.842;4.322;2023-02-26T02:39:36;1.00;99.90
17128;DHT22;8679;50.842;4.322;2023-02-26T02:42:07;1.00;99.90
17128;DHT22;8679;50.842;4.322;2023-02-26T02:44:44;0.90;99.90
17128;DHT22;8679;50.842;4.322;2023-02-26T02:47:11;1.00;99.90
17128;DHT22;8679;50.842;4.322;2023-02-26T02:49:47;1.00;99.90
17128;DHT22;8679;50.842;4.322;2023-02-26T02:52:20;1.10;99.90
17128;DHT22;8679;50.842;4.322;2023-02-26T02:54:58;1.10;99.90
17128;DHT22;8679;50.842;4.322;2023-02-26T02:57:38;1.10;99.90
17128;DHT22;8679;50.842;4.322;2023-02-26T03:00:08;1.10;99.90
17128;DHT22;8679;50.842;4.322;2023-02-26T03:05:22;1.20;99.90
17128;DHT22;8679;50.842;4.322;2023-02-26T03:07:54;1.20;99.90
17128;DHT22;8679;50.842;4.322;2023-02-26T03:10:21;1.20;99.90
17128;DHT22;8679;50.842;4.322;2023-02-26T03:12:47;1.30;99.90
17128;DHT22;8679;50.842;4.322;2023-02-26T03:15:14;1.30;99.90
17128;DHT22;8679;50.842;4.322;2023-02-26T03:21:03;1.40;99.90
17128;DHT22;8679;50.842;4.322;2023-02-26T03:23:34;1.40;99.90
17128;DHT22;8679;50.842;4.322;2023-02-26T03:26:26;1.40;99.90
17128;DHT22;8679;50.842;4.322;2023-02-26T03:28:58;1.50;99.90
17128;DHT22;8679;50.842;4.322;2023-02-26T03:31:54;1.60;99.90
17128;DHT22;8679;50.842;4.322;2023-02-26T03:34:31;1.60;99.90
17128;DHT22;8679;50.842;4.322;2023-02-26T03:37:14;1.70;99.90
17128;DHT22;8679;50.842;4.322;2023-02-26T03:39:46;1.60;99.90
17128;DHT22;8679;50.842;4.322;2023-02-26T03:42:27;1.60;99.90
17128;DHT22;8679;50.842;4.322;2023-02-26T03:45:00;1.70;99.90
17128;DHT22;8679;50.842;4.322;2023-02-26T03:47:28;1.70;99.90
17128;DHT22;8679;50.842;4.322;2023-02-26T03:50:04;1.60;99.90
17128;DHT22;8679;50.842;4.322;2023-02-26T03:52:34;1.60;99.90
17128;DHT22;8679;50.842;4.322;2023-02-26T03:55:09;1.60;99.90
17128;DHT22;8679;50.842;4.322;2023-02-26T03:57:36;1.50;99.90
17128;DHT22;8679;50.842;4.322;2023-02-26T04:00:03;1.50;99.90
17128;DHT22;8679;50.842;4.322;2023-02-26T04:02:41;1.50;99.90
17128;DHT22;8679;50.842;4.322;2023-02-26T04:05:18;1.40;99.90
17128;DHT22;8679;50.842;4.322;2023-02-26T04:07:46;1.40;99.90
17128;DHT22;8679;50.842;4.322;2023-02-26T04:10:16;1.40;99.90
17128;DHT22;8679;50.842;4.322;2023-02-26T04:12:43;1.40;99.90
17128;DHT22;8679;50.842;4.322;2023-02-26T04:15:09;1.40;99.90
17128;DHT22;8679;50.842;4.322;2023-02-26T04:17:35;1.40;99.90
17128;DHT22;8679;50.842;4.322;2023-02-26T04:20:01;1.40;99.90
17128;DHT22;8679;50.842;4.322;2023-02-26T04:22:26;1.40;99.90
17128;DHT22;8679;50.842;4.322;2023-02-26T04:24:52;1.40;99.90
17128;DHT22;8679;50.842;4.322;2023-02-26T04:27:18;1.40;99.90
17128;DHT22;8679;50.842;4.322;2023-02-26T04:29:43;1.30;99.90
17128;DHT22;8679;50.842;4.322;2023-02-26T04:32:09;1.30;99.90
17128;DHT22;8679;50.842;4.322;2023-02-26T04:34:35;1.30;99.90
17128;DHT22;8679;50.842;4.322;2023-02-26T04:37:00;1.30;99.90
17128;DHT22;8679;50.842;4.322;2023-02-26T04:39:26;1.30;99.90
17128;DHT22;8679;50.842;4.322;2023-02-26T04:41:52;1.20;99.90
17128;DHT22;8679;50.842;4.322;2023-02-26T04:44:17;1.30;99.90
17128;DHT22;8679;50.842;4.322;2023-02-26T04:46:43;1.30;99.90
17128;DHT22;8679;50.842;4.322;2023-02-26T04:49:09;1.20;99.90
17128;DHT22;8679;50.842;4.322;2023-02-26T04:51:34;1.20;99.90
17128;DHT22;8679;50.842;4.322;2023-02-26T04:54:00;1.20;99.90
17128;DHT22;8679;50.842;4.322;2023-02-26T04:56:26;1.10;99.90
17128;DHT22;8679;50.842;4.322;2023-02-26T04:58:52;1.10;99.90
17128;DHT22;8679;50.842;4.322;2023-02-26T05:01:18;1.10;99.90
17128;DHT22;8679;50.842;4.322;2023-02-26T05:03:43;1.10;99.90
17128;DHT22;8679;50.842;4.322;2023-02-26T05:06:09;1.10;99.90
17128;DHT22;8679;50.842;4.322;2023-02-26T05:08:35;1.10;99.90
17128;DHT22;8679;50.842;4.322;2023-02-26T05:11:00;1.00;99.90
17128;DHT22;8679;50.842;4.322;2023-02-26T05:13:26;1.00;99.90
17128;DHT22;8679;50.842;4.322;2023-02-26T05:15:53;1.00;99.90
17128;DHT22;8679;50.842;4.322;2023-02-26T05:18:19;1.00;99.90
17128;DHT22;8679;50.842;4.322;2023-02-26T05:20:44;1.00;99.90
17128;DHT22;8679;50.842;4.322;2023-02-26T05:23:10;0.90;99.90
17128;DHT22;8679;50.842;4.322;2023-02-26T05:25:36;0.90;99.90
17128;DHT22;8679;50.842;4.322;2023-02-26T05:28:01;0.90;99.90
17128;DHT22;8679;50.842;4.322;2023-02-26T05:30:27;0.90;99.90
17128;DHT22;8679;50.842;4.322;2023-02-26T05:32:52;0.80;99.90
17128;DHT22;8679;50.842;4.322;2023-02-26T05:35:19;0.80;99.90
17128;DHT22;8679;50.842;4.322;2023-02-26T05:37:44;0.70;99.90
17128;DHT22;8679;50.842;4.322;2023-02-26T05:40:10;0.70;99.90
17128;DHT22;8679;50.842;4.322;2023-02-26T05:42:44;0.70;99.90
17128;DHT22;8679;50.842;4.322;2023-02-26T05:45:10;0.70;99.90
17128;DHT22;8679;50.842;4.322;2023-02-26T05:47:36;0.70;99.90
17128;DHT22;8679;50.842;4.322;2023-02-26T05:50:03;0.70;99.90
17128;DHT22;8679;50.842;4.322;2023-02-26T05:52:29;0.70;99.90
17128;DHT22;8679;50.842;4.322;2023-02-26T05:54:55;0.60;99.90
17128;DHT22;8679;50.842;4.322;2023-02-26T05:57:21;0.60;99.90
17128;DHT22;8679;50.842;4.322;2023-02-26T05:59:47;0.50;99.90
17128;DHT22;8679;50.842;4.322;2023-02-26T06:02:12;0.50;99.90
17128;DHT22;8679;50.842;4.322;2023-02-26T06:04:38;0.50;99.90
17128;DHT22;8679;50.842;4.322;2023-02-26T06:07:03;0.60;99.90
17128;DHT22;8679;50.842;4.322;2023-02-26T06:09:29;0.60;99.90
17128;DHT22;8679;50.842;4.322;2023-02-26T06:11:55;0.50;99.90
17128;DHT22;8679;50.842;4.322;2023-02-26T06:14:20;0.50;99.90
17128;DHT22;8679;50.842;4.322;2023-02-26T06:16:46;0.50;99.90
17128;DHT22;8679;50.842;4.322;2023-02-26T06:19:12;0.50;99.90
17128;DHT22;8679;50.842;4.322;2023-02-26T06:21:38;0.50;99.90
17128;DHT22;8679;50.842;4.322;2023-02-26T06:24:04;0.40;99.90
17128;DHT22;8679;50.842;4.322;2023-02-26T06:26:30;0.50;99.90
17128;DHT22;8679;50.842;4.322;2023-02-26T06:28:55;0.40;99.90
17128;DHT22;8679;50.842;4.322;2023-02-26T06:31:21;0.40;99.90
17128;DHT22;8679;50.842;4.322;2023-02-26T06:33:47;0.30;99.90
17128;DHT22;8679;50.842;4.322;2023-02-26T06:36:13;0.40;99.90
17128;DHT22;8679;50.842;4.322;2023-02-26T06:38:38;0.40;99.90
17128;DHT22;8679;50.842;4.322;2023-02-26T06:41:04;0.40;99.90
17128;DHT22;8679;50.842;4.322;2023-02-26T06:43:30;0.40;99.90
17128;DHT22;8679;50.842;4.322;2023-02-26T06:45:57;0.40;99.90
17128;DHT22;8679;50.842;4.322;2023-02-26T06:48:23;0.40;99.90
17128;DHT22;8679;50.842;4.322;2023-02-26T06:50:49;0.40;99.90
17128;DHT22;8679;50.842;4.322;2023-02-26T06:53:15;0.40;99.90
17128;DHT22;8679;50.842;4.322;2023-02-26T06:55:44;0.40;99.90
17128;DHT22;8679;50.842;4.322;2023-02-26T06:58:10;0.40;99.90
17128;DHT22;8679;50.842;4.322;2023-02-26T07:00:36;0.40;99.90
17128;DHT22;8679;50.842;4.322;2023-02-26T07:03:03;0.40;99.90
17128;DHT22;8679;50.842;4.322;2023-02-26T07:05:29;0.40;99.90
17128;DHT22;8679;50.842;4.322;2023-02-26T07:07:54;0.50;99.90
17128;DHT22;8679;50.842;4.322;2023-02-26T07:10:20;0.50;99.90
17128;DHT22;8679;50.842;4.322;2023-02-26T07:12:46;0.50;99.90
17128;DHT22;8679;50.842;4.322;2023-02-26T07:15:13;0.50;99.90
17128;DHT22;8679;50.842;4.322;2023-02-26T07:17:39;0.60;99.90
17128;DHT22;8679;50.842;4.322;2023-02-26T07:20:05;0.70;99.90
17128;DHT22;8679;50.842;4.322;2023-02-26T07:22:35;0.80;99.90
17128;DHT22;8679;50.842;4.322;2023-02-26T07:25:02;0.90;99.90
17128;DHT22;8679;50.842;4.322;2023-02-26T07:27:28;1.00;99.90
17128;DHT22;8679;50.842;4.322;2023-02-26T07:29:54;1.20;99.90
17128;DHT22;8679;50.842;4.322;2023-02-26T07:32:21;1.60;99.90
17128;DHT22;8679;50.842;4.322;2023-02-26T07:34:46;1.80;99.90
17128;DHT22;8679;50.842;4.322;2023-02-26T07:37:13;1.80;99.90
17128;DHT22;8679;50.842;4.322;2023-02-26T07:39:38;1.80;99.90
17128;DHT22;8679;50.842;4.322;2023-02-26T07:42:04;1.70;99.90
17128;DHT22;8679;50.842;4.322;2023-02-26T07:44:30;1.60;99.90
17128;DHT22;8679;50.842;4.322;2023-02-26T07:46:55;1.60;99.90
17128;DHT22;8679;50.842;4.322;2023-02-26T07:49:21;1.60;99.90
17128;DHT22;8679;50.842;4.322;2023-02-26T07:51:47;1.60;99.90
17128;DHT22;8679;50.842;4.322;2023-02-26T07:54:13;1.60;99.90
17128;DHT22;8679;50.842;4.322;2023-02-26T07:56:40;1.60;99.90
17128;DHT22;8679;50.842;4.322;2023-02-26T07:59:08;1.70;99.90
17128;DHT22;8679;50.842;4.322;2023-02-26T08:01:34;1.70;99.90
17128;DHT22;8679;50.842;4.322;2023-02-26T08:04:00;1.70;99.90
17128;DHT22;8679;50.842;4.322;2023-02-26T08:06:26;1.70;99.90
17128;DHT22;8679;50.842;4.322;2023-02-26T08:08:52;1.70;99.90
17128;DHT22;8679;50.842;4.322;2023-02-26T08:11:18;1.70;99.90
17128;DHT22;8679;50.842;4.322;2023-02-26T08:13:43;1.80;99.90
17128;DHT22;8679;50.842;4.322;2023-02-26T08:16:09;1.80;99.90
17128;DHT22;8679;50.842;4.322;2023-02-26T08:18:35;1.90;99.90
17128;DHT22;8679;50.842;4.322;2023-02-26T08:21:04;2.00;99.90
17128;DHT22;8679;50.842;4.322;2023-02-26T08:23:29;2.00;99.90
17128;DHT22;8679;50.842;4.322;2023-02-26T08:26:03;2.00;99.90
17128;DHT22;8679;50.842;4.322;2023-02-26T08:28:29;2.10;99.90
17128;DHT22;8679;50.842;4.322;2023-02-26T08:30:55;2.10;99.90
17128;DHT22;8679;50.842;4.322;2023-02-26T08:33:21;2.10;99.90
17128;DHT22;8679;50.842;4.322;2023-02-26T08:35:48;2.20;99.90
17128;DHT22;8679;50.842;4.322;2023-02-26T08:38:14;2.20;99.90
17128;DHT22;8679;50.842;4.322;2023-02-26T08:40:40;2.20;99.90
17128;DHT22;8679;50.842;4.322;2023-02-26T08:43:06;2.30;99.90
17128;DHT22;8679;50.842;4.322;2023-02-26T08:45:32;2.30;99.90
17128;DHT22;8679;50.842;4.322;2023-02-26T08:47:58;2.40;99.90
17128;DHT22;8679;50.842;4.322;2023-02-26T08:50:24;2.40;99.90
17128;DHT22;8679;50.842;4.322;2023-02-26T08:52:50;2.40;99.90
17128;DHT22;8679;50.842;4.322;2023-02-26T08:55:16;2.50;99.90
17128;DHT22;8679;50.842;4.322;2023-02-26T08:57:42;2.50;99.90
17128;DHT22;8679;50.842;4.322;2023-02-26T09:00:08;2.50;99.90
17128;DHT22;8679;50.842;4.322;2023-02-26T09:02:36;2.60;99.90
17128;DHT22;8679;50.842;4.322;2023-02-26T09:05:01;2.60;99.90
17128;DHT22;8679;50.842;4.322;2023-02-26T09:07:27;2.70;99.90
17128;DHT22;8679;50.842;4.322;2023-02-26T09:09:53;2.70;99.90
17128;DHT22;8679;50.842;4.322;2023-02-26T09:12:18;2.80;99.90
17128;DHT22;8679;50.842;4.322;2023-02-26T09:14:44;2.90;99.90
17128;DHT22;8679;50.842;4.322;2023-02-26T09:17:10;3.00;99.90
17128;DHT22;8679;50.842;4.322;2023-02-26T09:19:35;3.00;99.90
17128;DHT22;8679;50.842;4.322;2023-02-26T09:22:01;3.10;99.90
17128;DHT22;8679;50.842;4.322;2023-02-26T09:24:26;3.10;99.90
17128;DHT22;8679;50.842;4.322;2023-02-26T09:26:52;3.10;99.90
17128;DHT22;8679;50.842;4.322;2023-02-26T09:29:18;3.10;99.90
17128;DHT22;8679;50.842;4.322;2023-02-26T09:31:43;3.30;99.90
17128;DHT22;8679;50.842;4.322;2023-02-26T09:34:09;3.30;99.90
17128;DHT22;8679;50.842;4.322;2023-02-26T09:36:35;3.40;99.90
17128;DHT22;8679;50.842;4.322;2023-02-26T09:39:02;3.40;99.90
17128;DHT22;8679;50.842;4.322;2023-02-26T09:41:37;3.50;99.90
17128;DHT22;8679;50.842;4.322;2023-02-26T09:44:18;3.50;99.90
17128;DHT22;8679;50.842;4.322;2023-02-26T09:54:40;3.60;99.90
17128;DHT22;8679;50.842;4.322;2023-02-26T09:57:10;3.70;99.90
17128;DHT22;8679;50.842;4.322;2023-02-26T09:59:39;3.70;99.90
17128;DHT22;8679;50.842;4.322;2023-02-26T10:02:28;3.80;99.90
17128;DHT22;8679;50.842;4.322;2023-02-26T10:05:26;3.90;99.90
17128;DHT22;8679;50.842;4.322;2023-02-26T10:08:03;4.10;99.90
17128;DHT22;8679;50.842;4.322;2023-02-26T10:13:00;4.20;99.90
17128;DHT22;8679;50.842;4.322;2023-02-26T10:15:39;4.20;99.90
17128;DHT22;8679;50.842;4.322;2023-02-26T10:18:14;4.20;99.90
17128;DHT22;8679;50.842;4.322;2023-02-26T10:20:58;4.20;99.90
17128;DHT22;8679;50.842;4.322;2023-02-26T10:23:57;4.30;99.90
17128;DHT22;8679;50.842;4.322;2023-02-26T10:26:53;4.30;99.90
17128;DHT22;8679;50.842;4.322;2023-02-26T10:29:26;4.40;99.90
17128;DHT22;8679;50.842;4.322;2023-02-26T10:34:53;4.60;99.90
17128;DHT22;8679;50.842;4.322;2023-02-26T10:40:28;4.80;99.90
17128;DHT22;8679;50.842;4.322;2023-02-26T10:43:03;4.80;99.90
17128;DHT22;8679;50.842;4.322;2023-02-26T10:48:42;5.00;99.90
17128;DHT22;8679;50.842;4.322;2023-02-26T10:51:13;5.20;99.90
17128;DHT22;8679;50.842;4.322;2023-02-26T10:53:46;5.20;99.90
17128;DHT22;8679;50.842;4.322;2023-02-26T10:56:17;5.30;99.90
17128;DHT22;8679;50.842;4.322;2023-02-26T10:58:44;5.60;99.90
17128;DHT22;8679;50.842;4.322;2023-02-26T11:01:17;5.80;99.90
17128;DHT22;8679;50.842;4.322;2023-02-26T11:03:46;5.90;99.90
17128;DHT22;8679;50.842;4.322;2023-02-26T11:06:30;6.10;99.90
17128;DHT22;8679;50.842;4.322;2023-02-26T11:08:59;6.20;99.90
17128;DHT22;8679;50.842;4.322;2023-02-26T11:14:02;6.20;99.90
17128;DHT22;8679;50.842;4.322;2023-02-26T11:16:28;6.20;99.90
17128;DHT22;8679;50.842;4.322;2023-02-26T11:18:54;6.30;99.90
17128;DHT22;8679;50.842;4.322;2023-02-26T11:21:34;6.40;99.90
17128;DHT22;8679;50.842;4.322;2023-02-26T11:24:04;6.40;99.90
17128;DHT22;8679;50.842;4.322;2023-02-26T11:26:33;6.30;99.90
17128;DHT22;8679;50.842;4.322;2023-02-26T11:28:59;6.20;99.90
17128;DHT22;8679;50.842;4.322;2023-02-26T11:31:26;6.10;99.90
17128;DHT22;8679;50.842;4.322;2023-02-26T11:34:06;6.10;99.90
17128;DHT22;8679;50.842;4.322;2023-02-26T11:36:33;5.90;99.90
17128;DHT22;8679;50.842;4.322;2023-02-26T11:39:07;6.00;99.90
17128;DHT22;8679;50.842;4.322;2023-02-26T11:41:38;6.00;99.90
17128;DHT22;8679;50.842;4.322;2023-02-26T11:44:07;6.00;99.90
17128;DHT22;8679;50.842;4.322;2023-02-26T11:46:44;6.00;99.90
17128;DHT22;8679;50.842;4.322;2023-02-26T11:49:16;5.90;99.90
17128;DHT22;8679;50.842;4.322;2023-02-26T11:51:46;6.00;99.90
17128;DHT22;8679;50.842;4.322;2023-02-26T11:54:24;6.00;99.90
17128;DHT22;8679;50.842;4.322;2023-02-26T11:56:51;6.00;99.90
17128;DHT22;8679;50.842;4.322;2023-02-26T11:59:24;6.00;99.90
17128;DHT22;8679;50.842;4.322;2023-02-26T12:01:51;6.00;99.90
17128;DHT22;8679;50.842;4.322;2023-02-26T12:04:23;5.90;99.90
17128;DHT22;8679;50.842;4.322;2023-02-26T12:06:54;6.00;99.90
17128;DHT22;8679;50.842;4.322;2023-02-26T12:09:20;6.00;99.90
17128;DHT22;8679;50.842;4.322;2023-02-26T12:14:51;6.00;99.90
17128;DHT22;8679;50.842;4.322;2023-02-26T12:17:38;5.80;99.90
17128;DHT22;8679;50.842;4.322;2023-02-26T12:23:12;7.00;99.90
17128;DHT22;8679;50.842;4.322;2023-02-26T12:28:42;8.70;99.90
17128;DHT22;8679;50.842;4.322;2023-02-26T12:37:31;10.50;99.90
17128;DHT22;8679;50.842;4.322;2023-02-26T12:43:32;10.70;98.30
17128;DHT22;8679;50.842;4.322;2023-02-26T12:48:44;11.30;92.80
17128;DHT22;8679;50.842;4.322;2023-02-26T12:56:55;12.20;76.30
17128;DHT22;8679;50.842;4.322;2023-02-26T13:10:56;11.90;50.80
17128;DHT22;8679;50.842;4.322;2023-02-26T13:16:30;13.00;51.10
17128;DHT22;8679;50.842;4.322;2023-02-26T13:19:22;12.70;44.20
17128;DHT22;8679;50.842;4.322;2023-02-26T13:21:57;12.60;47.20
17128;DHT22;8679;50.842;4.322;2023-02-26T13:24:32;12.90;46.00
17128;DHT22;8679;50.842;4.322;2023-02-26T13:27:00;13.00;40.90
17128;DHT22;8679;50.842;4.322;2023-02-26T13:29:46;12.90;38.60
17128;DHT22;8679;50.842;4.322;2023-02-26T13:32:20;12.80;37.20
17128;DHT22;8679;50.842;4.322;2023-02-26T13:34:53;13.00;38.70
17128;DHT22;8679;50.842;4.322;2023-02-26T13:45:22;13.60;34.70
17128;DHT22;8679;50.842;4.322;2023-02-26T13:48:03;13.50;36.70
17128;DHT22;8679;50.842;4.322;2023-02-26T13:51:06;13.80;33.20
17128;DHT22;8679;50.842;4.322;2023-02-26T13:56:22;13.20;29.70
17128;DHT22;8679;50.842;4.322;2023-02-26T14:14:24;13.60;24.30
17128;DHT22;8679;50.842;4.322;2023-02-26T14:19:37;13.40;25.00
17128;DHT22;8679;50.842;4.322;2023-02-26T14:22:23;13.60;23.30
17128;DHT22;8679;50.842;4.322;2023-02-26T14:25:20;13.50;21.90
17128;DHT22;8679;50.842;4.322;2023-02-26T14:33:46;13.20;21.90
17128;DHT22;8679;50.842;4.322;2023-02-26T14:36:18;13.40;22.30
17128;DHT22;8679;50.842;4.322;2023-02-26T14:38:45;13.60;23.00
17128;DHT22;8679;50.842;4.322;2023-02-26T14:41:35;13.30;22.90
17128;DHT22;8679;50.842;4.322;2023-02-26T14:46:34;13.00;22.50
17128;DHT22;8679;50.842;4.322;2023-02-26T14:49:00;13.20;23.90
17128;DHT22;8679;50.842;4.322;2023-02-26T15:02:03;13.20;23.30
17128;DHT22;8679;50.842;4.322;2023-02-26T15:07:29;13.00;23.10
17128;DHT22;8679;50.842;4.322;2023-02-26T15:10:28;13.00;22.30
17128;DHT22;8679;50.842;4.322;2023-02-26T15:23:46;13.30;22.20
17128;DHT22;8679;50.842;4.322;2023-02-26T15:26:19;12.90;22.30
17128;DHT22;8679;50.842;4.322;2023-02-26T15:28:48;12.90;22.90
17128;DHT22;8679;50.842;4.322;2023-02-26T15:31:15;12.40;22.50
17128;DHT22;8679;50.842;4.322;2023-02-26T15:33:43;11.90;23.00
17128;DHT22;8679;50.842;4.322;2023-02-26T15:36:16;11.90;24.90
17128;DHT22;8679;50.842;4.322;2023-02-26T15:38:49;12.00;26.30
17128;DHT22;8679;50.842;4.322;2023-02-26T15:41:18;12.00;24.40
17128;DHT22;8679;50.842;4.322;2023-02-26T15:43:49;11.70;24.80
17128;DHT22;8679;50.842;4.322;2023-02-26T15:46:16;11.80;25.60
17128;DHT22;8679;50.842;4.322;2023-02-26T15:48:42;11.70;24.20
17128;DHT22;8679;50.842;4.322;2023-02-26T15:51:12;11.70;25.40
17128;DHT22;8679;50.842;4.322;2023-02-26T15:53:50;11.50;25.00
17128;DHT22;8679;50.842;4.322;2023-02-26T15:56:29;11.40;25.70
17128;DHT22;8679;50.842;4.322;2023-02-26T15:59:00;11.50;25.50
17128;DHT22;8679;50.842;4.322;2023-02-26T16:01:32;11.50;27.00
17128;DHT22;8679;50.842;4.322;2023-02-26T16:04:02;11.60;26.40
17128;DHT22;8679;50.842;4.322;2023-02-26T16:06:30;11.80;27.60
17128;DHT22;8679;50.842;4.322;2023-02-26T16:08:58;11.70;25.80
17128;DHT22;8679;50.842;4.322;2023-02-26T16:11:34;11.70;27.30
17128;DHT22;8679;50.842;4.322;2023-02-26T16:14:02;11.70;27.10
17128;DHT22;8679;50.842;4.322;2023-02-26T16:16:43;11.80;27.00
17128;DHT22;8679;50.842;4.322;2023-02-26T16:19:41;11.80;27.30
17128;DHT22;8679;50.842;4.322;2023-02-26T16:22:31;11.50;26.80
17128;DHT22;8679;50.842;4.322;2023-02-26T16:25:00;11.60;27.20
17128;DHT22;8679;50.842;4.322;2023-02-26T16:27:28;11.50;27.00
17128;DHT22;8679;50.842;4.322;2023-02-26T16:29:58;11.50;28.00
17128;DHT22;8679;50.842;4.322;2023-02-26T16:32:27;11.30;27.20
17128;DHT22;8679;50.842;4.322;2023-02-26T16:34:56;11.00;28.90
17128;DHT22;8679;50.842;4.322;2023-02-26T16:37:32;11.00;29.50
17128;DHT22;8679;50.842;4.322;2023-02-26T16:40:18;10.80;29.20
17128;DHT22;8679;50.842;4.322;2023-02-26T16:42:53;10.80;30.20
17128;DHT22;8679;50.842;4.322;2023-02-26T16:48:02;10.50;33.40
17128;DHT22;8679;50.842;4.322;2023-02-26T16:50:33;10.60;32.30
17128;DHT22;8679;50.842;4.322;2023-02-26T16:53:05;10.70;30.40
17128;DHT22;8679;50.842;4.322;2023-02-26T16:55:35;10.90;30.80
17128;DHT22;8679;50.842;4.322;2023-02-26T16:58:03;11.00;30.00
17128;DHT22;8679;50.842;4.322;2023-02-26T17:00:32;10.90;30.30
17128;DHT22;8679;50.842;4.322;2023-02-26T17:03:11;10.60;30.00
17128;DHT22;8679;50.842;4.322;2023-02-26T17:05:42;10.00;31.90
17128;DHT22;8679;50.842;4.322;2023-02-26T17:08:18;9.30;34.20
17128;DHT22;8679;50.842;4.322;2023-02-26T17:10:47;8.70;37.00
17128;DHT22;8679;50.842;4.322;2023-02-26T17:13:26;8.10;40.90
17128;DHT22;8679;50.842;4.322;2023-02-26T17:15:52;7.80;47.20
17128;DHT22;8679;50.842;4.322;2023-02-26T17:18:21;7.40;51.90
17128;DHT22;8679;50.842;4.322;2023-02-26T17:20:47;7.10;55.20
17128;DHT22;8679;50.842;4.322;2023-02-26T17:23:15;6.90;57.80
17128;DHT22;8679;50.842;4.322;2023-02-26T17:25:43;6.70;61.80
17128;DHT22;8679;50.842;4.322;2023-02-26T17:28:22;6.50;65.30
17128;DHT22;8679;50.842;4.322;2023-02-26T17:30:48;6.30;74.50
17128;DHT22;8679;50.842;4.322;2023-02-26T17:33:14;6.20;83.70
17128;DHT22;8679;50.842;4.322;2023-02-26T17:35:41;6.10;89.40
17128;DHT22;8679;50.842;4.322;2023-02-26T17:38:09;5.90;91.40
17128;DHT22;8679;50.842;4.322;2023-02-26T17:40:39;5.80;93.30
17128;DHT22;8679;50.842;4.322;2023-02-26T17:43:05;5.70;96.50
17128;DHT22;8679;50.842;4.322;2023-02-26T17:45:33;5.60;97.70
17128;DHT22;8679;50.842;4.322;2023-02-26T17:47:59;5.50;99.90
17128;DHT22;8679;50.842;4.322;2023-02-26T17:50:44;5.40;99.90
17128;DHT22;8679;50.842;4.322;2023-02-26T17:53:16;5.30;99.90
17128;DHT22;8679;50.842;4.322;2023-02-26T17:55:42;5.30;99.90
17128;DHT22;8679;50.842;4.322;2023-02-26T17:58:29;5.20;99.90
17128;DHT22;8679;50.842;4.322;2023-02-26T18:00:58;5.10;99.90
17128;DHT22;8679;50.842;4.322;2023-02-26T18:03:24;5.00;99.90
17128;DHT22;8679;50.842;4.322;2023-02-26T18:05:52;4.90;99.90
17128;DHT22;8679;50.842;4.322;2023-02-26T18:10:52;4.80;99.90
17128;DHT22;8679;50.842;4.322;2023-02-26T18:13:18;4.70;99.90
17128;DHT22;8679;50.842;4.322;2023-02-26T18:15:44;4.70;99.90
17128;DHT22;8679;50.842;4.322;2023-02-26T18:18:11;4.60;99.90
17128;DHT22;8679;50.842;4.322;2023-02-26T18:20:38;4.50;99.90
17128;DHT22;8679;50.842;4.322;2023-02-26T18:23:04;4.50;99.90
17128;DHT22;8679;50.842;4.322;2023-02-26T18:25:32;4.40;99.90
17128;DHT22;8679;50.842;4.322;2023-02-26T18:27:58;4.40;99.90
17128;DHT22;8679;50.842;4.322;2023-02-26T18:30:27;4.30;99.90
17128;DHT22;8679;50.842;4.322;2023-02-26T18:32:54;4.30;99.90
17128;DHT22;8679;50.842;4.322;2023-02-26T18:35:19;4.20;99.90
17128;DHT22;8679;50.842;4.322;2023-02-26T18:37:45;4.20;99.90
17128;DHT22;8679;50.842;4.322;2023-02-26T18:40:14;4.20;99.90
17128;DHT22;8679;50.842;4.322;2023-02-26T18:42:40;4.10;99.90
17128;DHT22;8679;50.842;4.322;2023-02-26T18:45:06;4.00;99.90
17128;DHT22;8679;50.842;4.322;2023-02-26T18:47:32;4.00;99.90
17128;DHT22;8679;50.842;4.322;2023-02-26T18:49:58;4.00;99.90
17128;DHT22;8679;50.842;4.322;2023-02-26T18:52:23;4.00;99.90
17128;DHT22;8679;50.842;4.322;2023-02-26T18:54:49;3.90;99.90
17128;DHT22;8679;50.842;4.322;2023-02-26T18:57:15;3.90;99.90
17128;DHT22;8679;50.842;4.322;2023-02-26T18:59:41;3.90;99.90
17128;DHT22;8679;50.842;4.322;2023-02-26T19:02:09;3.90;99.90
17128;DHT22;8679;50.842;4.322;2023-02-26T19:04:36;3.80;99.90
17128;DHT22;8679;50.842;4.322;2023-02-26T19:07:02;3.80;99.90
17128;DHT22;8679;50.842;4.322;2023-02-26T19:09:28;3.70;99.90